createdAt,value
2018-09-29T00:02:20.754Z,3.61
2018-09-29T00:04:51.511Z,3.67
2018-09-29T00:07:22.253Z,3.63
2018-09-29T00:09:51.893Z,3.55
2018-09-29T00:12:22.874Z,3.51
2018-09-29T00:14:52.561Z,3.44
2018-09-29T00:17:22.408Z,3.40
2018-09-29T00:19:54.362Z,3.39
2018-09-29T00:22:23.996Z,3.40
2018-09-29T00:24:54.636Z,3.36
2018-09-29T00:27:25.690Z,3.36
2018-09-29T00:29:55.552Z,3.34
2018-09-29T00:32:25.324Z,3.25
2018-09-29T00:34:57.015Z,3.23
2018-09-29T00:37:27.857Z,3.17
2018-09-29T00:39:58.914Z,3.14
2018-09-29T00:42:28.533Z,3.12
2018-09-29T00:44:58.770Z,3.13
2018-09-29T00:47:30.266Z,3.04
2018-09-29T00:50:01.318Z,3.01
2018-09-29T00:52:31.427Z,3.02
2018-09-29T00:55:01.167Z,2.98
2018-09-29T00:57:31.916Z,2.98
2018-09-29T01:00:01.578Z,2.94
2018-09-29T01:02:31.760Z,2.92
2018-09-29T01:05:02.390Z,2.93
2018-09-29T01:07:32.945Z,2.88
2018-09-29T01:10:03.076Z,2.84
2018-09-29T01:12:32.809Z,2.83
2018-09-29T01:15:02.610Z,2.79
2018-09-29T01:17:33.416Z,2.77
2018-09-29T01:20:03.126Z,2.83
2018-09-29T01:22:33.264Z,2.82
2018-09-29T01:25:03.468Z,2.73
2018-09-29T01:27:33.154Z,2.69
2018-09-29T01:30:02.856Z,2.65
2018-09-29T01:32:33.121Z,2.60
2018-09-29T01:35:04.600Z,2.57
2018-09-29T01:37:34.329Z,2.58
2018-09-29T01:40:04.651Z,2.60
2018-09-29T01:42:34.366Z,2.58
2018-09-29T01:45:04.077Z,2.58
2018-09-29T01:47:34.422Z,2.49
2018-09-29T01:50:04.649Z,2.50
2018-09-29T01:52:34.426Z,2.49
2018-09-29T01:55:06.213Z,2.51
2018-09-29T01:57:35.979Z,2.49
2018-09-29T02:00:05.678Z,2.45
2018-09-29T02:02:35.545Z,2.45
2018-09-29T02:05:05.341Z,2.47
2018-09-29T02:07:35.099Z,2.48
2018-09-29T02:10:04.922Z,2.46
2018-09-29T02:12:41.491Z,2.42
2018-09-29T02:15:11.126Z,2.45
2018-09-29T02:17:41.553Z,2.48
2018-09-29T02:20:12.545Z,2.51
2018-09-29T02:22:43.010Z,2.55
2018-09-29T02:25:13.366Z,2.54
2018-09-29T02:27:43.534Z,2.53
2018-09-29T02:30:13.347Z,2.52
2018-09-29T02:32:44.050Z,2.54
2018-09-29T02:35:14.233Z,2.50
2018-09-29T02:37:46.637Z,2.47
2018-09-29T02:40:17.476Z,2.45
2018-09-29T02:42:47.234Z,2.40
2018-09-29T02:45:19.254Z,2.42
2018-09-29T02:47:48.915Z,2.35
2018-09-29T02:50:19.326Z,2.32
2018-09-29T02:52:48.962Z,2.32
2018-09-29T02:55:20.332Z,2.28
2018-09-29T02:57:50.242Z,2.23
2018-09-29T03:00:23.192Z,2.28
2018-09-29T03:02:52.846Z,2.28
2018-09-29T03:05:22.580Z,2.21
2018-09-29T03:07:52.373Z,2.14
2018-09-29T03:10:22.785Z,2.10
2018-09-29T03:12:52.459Z,2.05
2018-09-29T03:15:22.198Z,2.01
2018-09-29T03:17:54.939Z,1.99
2018-09-29T03:20:24.606Z,1.97
2018-09-29T03:22:54.354Z,1.97
2018-09-29T03:25:24.413Z,1.94
2018-09-29T03:27:54.709Z,1.92
2018-09-29T03:30:24.431Z,1.90
2018-09-29T03:32:54.066Z,1.91
2018-09-29T03:35:23.687Z,1.90
2018-09-29T03:37:53.386Z,1.91
2018-09-29T03:40:23.039Z,1.91
2018-09-29T03:42:53.221Z,1.93
2018-09-29T03:45:22.873Z,1.92
2018-09-29T03:47:52.545Z,1.86
2018-09-29T03:50:23.851Z,1.83
2018-09-29T03:52:53.772Z,1.84
2018-09-29T03:55:24.522Z,1.81
2018-09-29T03:57:54.619Z,1.76
2018-09-29T04:00:24.430Z,1.77
2018-09-29T04:02:54.916Z,1.79
2018-09-29T04:05:25.946Z,1.81
2018-09-29T04:07:56.145Z,1.73
2018-09-29T04:10:27.566Z,1.71
2018-09-29T04:12:57.360Z,1.70
2018-09-29T04:15:27.201Z,1.62
2018-09-29T04:17:57.730Z,1.57
2018-09-29T04:20:28.338Z,1.59
2018-09-29T04:22:58.697Z,1.61
2018-09-29T04:25:28.418Z,1.62
2018-09-29T04:27:59.370Z,1.60
2018-09-29T04:30:29.156Z,1.55
2018-09-29T04:32:58.837Z,1.55
2018-09-29T04:35:29.229Z,1.53
2018-09-29T04:37:58.890Z,1.55
2018-09-29T04:40:29.494Z,1.56
2018-09-29T04:43:00.805Z,1.47
2018-09-29T04:45:30.582Z,1.44
2018-09-29T04:48:00.201Z,1.42
2018-09-29T04:50:29.970Z,1.38
2018-09-29T04:52:59.644Z,1.38
2018-09-29T04:55:30.016Z,1.45
2018-09-29T04:58:00.337Z,1.42
2018-09-29T05:00:31.437Z,1.43
2018-09-29T05:03:01.759Z,1.44
2018-09-29T05:05:31.420Z,1.48
2018-09-29T05:08:01.330Z,1.49
2018-09-29T05:10:31.062Z,1.47
2018-09-29T05:13:03.142Z,1.47
2018-09-29T05:15:33.769Z,1.43
2018-09-29T05:18:04.220Z,1.42
2018-09-29T05:20:33.929Z,1.42
2018-09-29T05:23:04.005Z,1.43
2018-09-29T05:25:33.683Z,1.40
2018-09-29T05:28:06.655Z,1.43
2018-09-29T05:30:40.420Z,1.45
2018-09-29T05:33:11.964Z,1.48
2018-09-29T05:35:41.630Z,1.52
2018-09-29T05:38:12.253Z,1.56
2018-09-29T05:40:43.086Z,1.61
2018-09-29T05:43:14.205Z,1.67
2018-09-29T05:45:44.865Z,1.70
2018-09-29T05:48:15.409Z,1.74
2018-09-29T05:50:45.311Z,1.81
2018-09-29T05:53:15.950Z,1.83
2018-09-29T05:55:47.285Z,1.91
2018-09-29T05:58:23.189Z,2.01
2018-09-29T06:00:53.402Z,2.08
2018-09-29T06:03:25.516Z,2.15
2018-09-29T06:05:56.499Z,2.20
2018-09-29T06:08:27.339Z,2.22
2018-09-29T06:10:58.654Z,2.33
2018-09-29T06:13:30.801Z,2.46
2018-09-29T06:16:03.224Z,2.61
2018-09-29T06:18:33.840Z,2.72
2018-09-29T06:21:09.980Z,2.83
2018-09-29T06:23:41.294Z,2.90
2018-09-29T06:26:13.386Z,2.99
2018-09-29T06:28:43.482Z,3.14
2018-09-29T06:31:14.063Z,3.28
2018-09-29T06:33:43.753Z,3.41
2018-09-29T06:36:13.861Z,3.52
2018-09-29T06:38:44.259Z,3.65
2018-09-29T06:41:15.907Z,3.80
2018-09-29T06:43:54.700Z,3.95
2018-09-29T06:46:24.397Z,4.11
2018-09-29T06:48:54.071Z,4.26
2018-09-29T06:51:24.762Z,4.42
2018-09-29T06:53:54.866Z,4.57
2018-09-29T06:56:25.929Z,4.72
2018-09-29T06:58:57.007Z,4.83
2018-09-29T07:01:28.030Z,4.92
2018-09-29T07:04:01.996Z,5.09
2018-09-29T07:06:32.499Z,5.27
2018-09-29T07:09:03.300Z,5.42
2018-09-29T07:11:33.105Z,5.58
2018-09-29T07:14:05.362Z,5.72
2018-09-29T07:16:37.697Z,5.77
2018-09-29T07:19:08.754Z,5.88
2018-09-29T07:21:39.862Z,5.99
2018-09-29T07:24:10.542Z,6.11
2018-09-29T07:26:40.655Z,6.23
2018-09-29T07:29:11.193Z,6.35
2018-09-29T07:31:42.433Z,6.43
2018-09-29T07:34:12.526Z,6.54
2018-09-29T07:36:43.865Z,6.60
2018-09-29T07:39:14.016Z,6.66
2018-09-29T07:41:44.418Z,6.74
2018-09-29T07:44:14.828Z,6.81
2018-09-29T07:46:47.674Z,6.93
2018-09-29T07:49:19.746Z,7.09
2018-09-29T07:51:52.475Z,7.26
2018-09-29T07:54:25.099Z,7.33
2018-09-29T07:56:56.041Z,7.30
2018-09-29T07:59:28.289Z,7.38
2018-09-29T08:02:03.379Z,7.43
2018-09-29T08:04:39.964Z,7.38
2018-09-29T08:07:12.299Z,7.40
2018-09-29T08:09:42.812Z,7.41
2018-09-29T08:12:13.061Z,7.51
2018-09-29T08:14:50.471Z,7.45
2018-09-29T08:17:39.556Z,7.52
2018-09-29T08:20:10.152Z,7.67
2018-09-29T08:22:41.816Z,7.74
2018-09-29T08:25:16.363Z,7.76
2018-09-29T08:27:48.190Z,7.77
2018-09-29T08:30:20.728Z,7.75
2018-09-29T08:32:51.901Z,7.75
2018-09-29T08:35:22.864Z,7.81
2018-09-29T08:37:55.303Z,7.97
2018-09-29T08:40:25.436Z,8.00
2018-09-29T08:43:08.034Z,8.04
2018-09-29T08:45:39.645Z,8.13
2018-09-29T08:48:11.448Z,8.30
2018-09-29T08:50:42.409Z,8.39
2018-09-29T08:53:17.416Z,8.51
2018-09-29T08:55:47.594Z,8.66
2018-09-29T08:58:18.193Z,8.73
2018-09-29T09:00:50.514Z,8.71
2018-09-29T09:03:26.648Z,8.75
2018-09-29T09:05:59.390Z,8.87
2018-09-29T09:08:32.297Z,8.85
2018-09-29T09:11:02.605Z,8.94
2018-09-29T09:13:33.661Z,8.91
2018-09-29T09:16:06.185Z,9.05
2018-09-29T09:18:37.338Z,9.12
2018-09-29T09:21:08.618Z,9.17
2018-09-29T09:23:46.946Z,9.18
2018-09-29T09:26:21.065Z,9.29
2018-09-29T09:28:51.421Z,9.42
2018-09-29T09:31:22.744Z,9.61
2018-09-29T09:33:52.855Z,9.65
2018-09-29T09:36:23.781Z,9.75
2018-09-29T09:38:54.651Z,9.78
2018-09-29T09:41:27.228Z,9.91
2018-09-29T09:44:02.503Z,9.95
2018-09-29T09:46:33.413Z,9.96
2018-09-29T09:49:05.616Z,9.89
2018-09-29T09:51:36.628Z,9.94
2018-09-29T09:54:08.129Z,9.99
2018-09-29T09:56:43.313Z,10.16
2018-09-29T09:59:13.521Z,10.23
2018-09-29T10:01:48.683Z,10.40
2018-09-29T10:04:18.795Z,10.59
2018-09-29T10:06:51.959Z,10.60
2018-09-29T10:09:22.987Z,10.72
2018-09-29T10:11:53.620Z,10.85
2018-09-29T10:14:24.189Z,10.93
2018-09-29T10:16:56.659Z,10.84
2018-09-29T10:19:26.759Z,10.98
2018-09-29T10:21:58.310Z,11.00
2018-09-29T10:24:28.490Z,10.99
2018-09-29T10:26:58.285Z,10.89
2018-09-29T10:29:31.367Z,11.01
2018-09-29T10:32:02.096Z,11.10
2018-09-29T10:34:33.654Z,11.12
2018-09-29T10:37:05.090Z,11.24
2018-09-29T10:39:35.252Z,11.14
2018-09-29T10:42:06.864Z,11.11
2018-09-29T10:44:37.530Z,11.11
2018-09-29T10:47:08.244Z,11.19
2018-09-29T10:49:38.169Z,11.19
2018-09-29T10:52:09.821Z,11.23
2018-09-29T10:54:39.703Z,11.24
2018-09-29T10:57:09.369Z,11.23
2018-09-29T10:59:39.381Z,11.30
2018-09-29T11:02:11.254Z,11.35
2018-09-29T11:04:42.263Z,11.25
2018-09-29T11:07:14.378Z,11.29
2018-09-29T11:09:44.155Z,11.36
2018-09-29T11:12:14.650Z,11.22
2018-09-29T11:14:45.836Z,11.28
2018-09-29T11:17:17.144Z,11.33
2018-09-29T11:19:49.536Z,11.31
2018-09-29T11:22:20.214Z,11.43
2018-09-29T11:24:56.592Z,11.51
2018-09-29T11:27:27.362Z,11.56
2018-09-29T11:29:58.599Z,11.58
2018-09-29T11:32:30.944Z,11.62
2018-09-29T11:35:02.580Z,11.76
2018-09-29T11:37:34.241Z,11.86
2018-09-29T11:40:04.557Z,11.87
2018-09-29T11:42:35.666Z,11.92
2018-09-29T11:45:06.501Z,11.83
2018-09-29T11:47:40.623Z,11.64
2018-09-29T11:50:13.085Z,11.66
2018-09-29T11:52:46.415Z,11.78
2018-09-29T11:55:16.812Z,11.87
2018-09-29T11:57:47.449Z,11.86
2018-09-29T12:00:17.502Z,11.73
2018-09-29T12:02:50.194Z,11.72
2018-09-29T12:05:19.805Z,11.70
2018-09-29T12:07:50.297Z,11.62
2018-09-29T12:10:24.638Z,11.66
2018-09-29T12:12:56.043Z,11.61
2018-09-29T12:15:26.104Z,11.58
2018-09-29T12:17:58.893Z,11.52
2018-09-29T12:20:29.337Z,11.41
2018-09-29T12:22:59.053Z,11.41
2018-09-29T12:25:28.725Z,11.43
2018-09-29T12:27:58.403Z,11.45
2018-09-29T12:30:29.861Z,11.48
2018-09-29T12:33:03.856Z,11.52
2018-09-29T12:35:35.943Z,11.49
2018-09-29T12:38:08.854Z,11.46
2018-09-29T12:40:40.530Z,11.48
2018-09-29T12:43:10.175Z,11.54
2018-09-29T12:45:41.309Z,11.60
2018-09-29T12:48:11.929Z,11.63
2018-09-29T12:50:42.623Z,11.66
2018-09-29T12:53:12.261Z,11.71
2018-09-29T12:55:43.370Z,11.68
2018-09-29T12:58:15.861Z,11.62
2018-09-29T13:00:46.524Z,11.58
2018-09-29T13:03:18.570Z,11.62
2018-09-29T13:05:48.581Z,11.64
2018-09-29T13:08:20.445Z,11.70
2018-09-29T13:10:50.325Z,11.70
2018-09-29T13:13:20.046Z,11.70
2018-09-29T13:15:51.441Z,11.68
2018-09-29T13:18:23.078Z,11.73
2018-09-29T13:20:52.875Z,11.71
2018-09-29T13:23:26.651Z,11.73
2018-09-29T13:25:56.594Z,11.71
2018-09-29T13:28:26.865Z,11.66
2018-09-29T13:30:57.186Z,11.65
2018-09-29T13:33:31.693Z,11.63
2018-09-29T13:36:09.790Z,11.63
2018-09-29T13:38:45.368Z,11.66
2018-09-29T13:41:15.353Z,11.65
2018-09-29T13:43:45.474Z,11.68
2018-09-29T13:46:17.521Z,11.64
2018-09-29T13:48:48.530Z,11.67
2018-09-29T13:51:18.753Z,11.68
2018-09-29T13:53:48.700Z,11.65
2018-09-29T13:56:18.419Z,11.63
2018-09-29T13:58:48.110Z,11.67
2018-09-29T14:01:23.607Z,11.67
2018-09-29T14:03:59.349Z,11.75
2018-09-29T14:06:28.988Z,11.79
2018-09-29T14:08:59.529Z,11.84
2018-09-29T14:11:29.403Z,11.88
2018-09-29T14:14:02.704Z,11.89
2018-09-29T14:16:35.065Z,11.95
2018-09-29T14:19:05.347Z,11.95
2018-09-29T14:21:37.193Z,12.02
2018-09-29T14:24:16.324Z,12.03
2018-09-29T14:26:46.756Z,12.07
2018-09-29T14:29:17.622Z,12.08
2018-09-29T14:31:49.613Z,12.14
2018-09-29T14:34:24.955Z,12.21
2018-09-29T14:36:55.794Z,12.22
2018-09-29T14:39:25.488Z,12.32
2018-09-29T14:41:55.366Z,12.35
2018-09-29T14:44:35.286Z,12.38
2018-09-29T14:47:04.970Z,12.41
2018-09-29T14:49:35.075Z,12.45
2018-09-29T14:52:08.417Z,12.38
2018-09-29T14:58:10.476Z,12.43
2018-09-29T15:00:42.097Z,12.41
2018-09-29T15:03:16.180Z,12.47
2018-09-29T15:05:50.092Z,12.41
2018-09-29T15:08:20.546Z,12.33
2018-09-29T15:10:52.359Z,12.21
2018-09-29T15:13:23.914Z,12.24
2018-09-29T15:15:57.970Z,12.14
2018-09-29T15:18:31.392Z,12.03
2018-09-29T15:21:02.418Z,11.95
2018-09-29T15:23:35.180Z,11.86
2018-09-29T15:26:06.896Z,11.77
2018-09-29T15:28:37.632Z,11.68
2018-09-29T15:31:08.454Z,11.62
2018-09-29T15:33:39.446Z,11.56
2018-09-29T15:36:09.392Z,11.50
2018-09-29T15:38:41.845Z,11.46
2018-09-29T15:41:13.633Z,11.36
2018-09-29T15:43:44.768Z,11.26
2018-09-29T15:46:17.436Z,11.21
2018-09-29T15:48:49.465Z,11.17
2018-09-29T15:51:20.266Z,11.09
2018-09-29T15:53:51.573Z,11.02
2018-09-29T15:56:23.157Z,10.94
2018-09-29T15:58:53.540Z,10.89
2018-09-29T16:01:25.326Z,10.84
2018-09-29T16:03:56.907Z,10.78
2018-09-29T16:06:31.492Z,10.73
2018-09-29T16:09:08.007Z,10.67
2018-09-29T16:11:40.302Z,10.61
2018-09-29T16:14:10.363Z,10.54
2018-09-29T16:16:44.042Z,10.48
2018-09-29T16:19:14.648Z,10.46
2018-09-29T16:21:46.498Z,10.40
2018-09-29T16:24:17.574Z,10.34
2018-09-29T16:26:50.615Z,10.28
2018-09-29T16:29:23.800Z,10.14
2018-09-29T16:31:54.357Z,10.03
2018-09-29T16:34:27.043Z,9.89
2018-09-29T16:36:57.047Z,9.73
2018-09-29T16:39:28.639Z,9.61
2018-09-29T16:42:00.651Z,9.49
2018-09-29T16:44:30.816Z,9.34
2018-09-29T16:47:08.447Z,9.24
2018-09-29T16:49:39.326Z,9.20
2018-09-29T16:52:09.418Z,9.07
2018-09-29T16:54:41.547Z,8.96
2018-09-29T16:57:12.663Z,8.88
2018-09-29T16:59:44.785Z,8.77
2018-09-29T17:02:17.483Z,8.70
2018-09-29T17:04:52.448Z,8.64
2018-09-29T17:07:22.679Z,8.51
2018-09-29T17:09:54.480Z,8.44
2018-09-29T17:12:26.382Z,8.41
2018-09-29T17:14:57.371Z,8.32
2018-09-29T17:17:28.690Z,8.20
2018-09-29T17:19:59.482Z,8.11
2018-09-29T17:22:29.755Z,8.02
2018-09-29T17:25:00.204Z,7.90
2018-09-29T17:27:31.361Z,7.84
2018-09-29T17:30:04.590Z,7.73
2018-09-29T17:32:35.822Z,7.72
2018-09-29T17:35:07.863Z,7.65
2018-09-29T17:37:40.964Z,7.61
2018-09-29T17:40:12.256Z,7.53
2018-09-29T17:42:49.518Z,7.52
2018-09-29T17:45:21.239Z,7.45
2018-09-29T17:47:56.497Z,7.38
2018-09-29T17:50:29.431Z,7.29
2018-09-29T17:53:01.204Z,7.24
2018-09-29T17:55:33.029Z,7.13
2018-09-29T17:58:04.377Z,7.06
2018-09-29T18:00:34.449Z,6.99
2018-09-29T18:03:06.073Z,6.96
2018-09-29T18:05:36.620Z,6.87
2018-09-29T18:08:08.209Z,6.83
2018-09-29T18:10:38.769Z,6.81
2018-09-29T18:13:11.051Z,6.75
2018-09-29T18:15:45.451Z,6.69
2018-09-29T18:18:16.804Z,6.58
2018-09-29T18:20:48.414Z,6.48
2018-09-29T18:23:18.738Z,6.43
2018-09-29T18:25:50.665Z,6.41
2018-09-29T18:28:26.274Z,6.38
2018-09-29T18:30:59.403Z,6.35
2018-09-29T18:33:37.469Z,6.23
2018-09-29T18:36:10.112Z,6.14
2018-09-29T18:38:41.367Z,6.10
2018-09-29T18:41:12.417Z,6.08
2018-09-29T18:43:43.239Z,6.03
2018-09-29T18:46:14.324Z,5.97
2018-09-29T18:48:50.254Z,5.91
2018-09-29T18:51:20.617Z,5.85
2018-09-29T18:53:51.496Z,5.84
2018-09-29T18:56:23.311Z,5.80
2018-09-29T18:58:54.964Z,5.76
2018-09-29T19:01:25.412Z,5.71
2018-09-29T19:03:58.439Z,5.67
2018-09-29T19:09:08.612Z,5.51
2018-09-29T19:11:41.606Z,5.53
2018-09-29T19:14:13.418Z,5.51
2018-09-29T19:16:48.809Z,5.46
2018-09-29T19:21:59.466Z,5.48
2018-09-29T19:24:30.473Z,5.50
2018-09-29T19:27:09.040Z,5.44
2018-09-29T19:29:43.343Z,5.38
2018-09-29T19:32:18.235Z,5.34
2018-09-29T19:34:57.582Z,5.27
2018-09-29T19:37:32.531Z,5.23
2018-09-29T19:40:05.340Z,5.20
2018-09-29T19:42:41.718Z,5.13
2018-09-29T19:45:13.825Z,5.06
2018-09-29T19:47:49.787Z,5.03
2018-09-29T19:50:24.281Z,4.98
2018-09-29T19:52:57.263Z,4.94
2018-09-29T19:55:29.785Z,4.89
2018-09-29T19:58:03.745Z,4.81
2018-09-29T20:00:39.528Z,4.79
2018-09-29T20:03:12.772Z,4.78
2018-09-29T20:05:46.428Z,4.74
2018-09-29T20:08:18.398Z,4.68
2018-09-29T20:10:51.429Z,4.63
2018-09-29T20:13:50.084Z,4.65
2018-09-29T20:16:19.937Z,4.62
2018-09-29T20:18:51.430Z,4.60
2018-09-29T20:21:24.426Z,4.51
2018-09-29T20:23:56.150Z,4.44
2018-09-29T20:26:27.916Z,4.43
2018-09-29T20:29:12.581Z,4.45
2018-09-29T20:31:44.417Z,4.42
2018-09-29T20:34:15.479Z,4.35
2018-09-29T20:36:45.751Z,4.29
2018-09-29T20:39:16.769Z,4.26
2018-09-29T20:41:47.816Z,4.20
2018-09-29T20:44:20.346Z,4.18
2018-09-29T20:46:53.190Z,4.15
2018-09-29T20:49:24.002Z,4.12
2018-09-29T20:51:56.598Z,4.10
2018-09-29T20:54:27.490Z,4.05
2018-09-29T20:57:01.641Z,4.00
2018-09-29T20:59:33.979Z,3.95
2018-09-29T21:02:04.662Z,3.92
2018-09-29T21:04:36.849Z,3.90
2018-09-29T21:07:06.678Z,3.90
2018-09-29T21:09:38.045Z,3.86
2018-09-29T21:12:09.498Z,3.86
2018-09-29T21:14:39.402Z,3.83
2018-09-29T21:17:09.962Z,3.79
2018-09-29T21:19:41.407Z,3.76
2018-09-29T21:22:11.081Z,3.72
2018-09-29T21:24:41.667Z,3.75
2018-09-29T21:27:13.288Z,3.73
2018-09-29T21:29:42.996Z,3.72
2018-09-29T21:32:13.864Z,3.73
2018-09-29T21:34:44.463Z,3.69
2018-09-29T21:37:14.305Z,3.63
2018-09-29T21:39:46.523Z,3.63
2018-09-29T21:42:21.856Z,3.65
2018-09-29T21:44:53.323Z,3.72
2018-09-29T21:47:23.947Z,3.64
2018-09-29T21:49:56.486Z,3.62
2018-09-29T21:52:26.299Z,3.67
2018-09-29T21:54:56.142Z,3.68
2018-09-29T21:57:26.799Z,3.63
2018-09-29T21:59:56.489Z,3.63
2018-09-29T22:02:29.345Z,3.63
2018-09-29T22:04:59.194Z,3.70
2018-09-29T22:07:30.815Z,3.72
2018-09-29T22:10:01.114Z,3.72
2018-09-29T22:12:31.213Z,3.72
2018-09-29T22:15:05.921Z,3.76
2018-09-29T22:17:36.261Z,3.77
2018-09-29T22:20:06.349Z,3.78
2018-09-29T22:22:36.670Z,3.77
2018-09-29T22:25:08.772Z,3.77
2018-09-29T22:27:39.783Z,3.79
2018-09-29T22:30:11.021Z,3.78
2018-09-29T22:32:42.282Z,3.77
2018-09-29T22:35:11.954Z,3.75
2018-09-29T22:37:41.650Z,3.66
2018-09-29T22:40:13.506Z,3.70
2018-09-29T22:42:44.500Z,3.70
2018-09-29T22:45:14.219Z,3.65
2018-09-29T22:47:43.852Z,3.61
2018-09-29T22:50:14.871Z,3.62
2018-09-29T22:52:44.518Z,3.58
2018-09-29T22:55:15.117Z,3.58
2018-09-29T22:57:44.998Z,3.51
2018-09-29T23:00:14.626Z,3.52
2018-09-29T23:02:44.605Z,3.56
2018-09-29T23:05:14.242Z,3.48
2018-09-29T23:07:44.765Z,3.50
2018-09-29T23:10:15.373Z,3.55
2018-09-29T23:12:45.480Z,3.64
2018-09-29T23:15:15.730Z,3.68
2018-09-29T23:17:51.436Z,3.68
2018-09-29T23:20:35.238Z,3.65
2018-09-29T23:23:29.245Z,3.65
2018-09-29T23:26:00.350Z,3.68
2018-09-29T23:28:30.206Z,3.66
2018-09-29T23:31:01.914Z,3.62
2018-09-29T23:33:31.628Z,3.65
2018-09-29T23:36:01.317Z,3.58
2018-09-29T23:38:31.821Z,3.63
2018-09-29T23:41:02.604Z,3.68
2018-09-29T23:43:33.950Z,3.71
2018-09-29T23:46:03.629Z,3.89
2018-09-29T23:48:50.561Z,4.24
2018-09-29T23:51:22.050Z,4.20
2018-09-29T23:53:56.231Z,4.17
2018-09-29T23:56:26.602Z,4.37
2018-09-29T23:58:57.432Z,4.50
